createdAt,value
2023-03-12T00:01:23.455Z,80.04
2023-03-12T00:03:50.577Z,79.77
2023-03-12T00:06:18.541Z,80.03
2023-03-12T00:08:45.131Z,79.65
2023-03-12T00:11:14.559Z,80.08
2023-03-12T00:13:41.204Z,79.39
2023-03-12T00:16:10.458Z,79.72
2023-03-12T00:18:37.422Z,79.52
2023-03-12T00:21:04.786Z,79.52
2023-03-12T00:23:31.597Z,79.60
2023-03-12T00:26:02.547Z,79.46
2023-03-12T00:28:29.582Z,79.61
2023-03-12T00:30:58.353Z,79.91
2023-03-12T00:33:26.049Z,80.32
2023-03-12T00:35:53.493Z,80.86
2023-03-12T00:38:20.280Z,81.16
2023-03-12T00:40:47.223Z,81.04
2023-03-12T00:43:14.259Z,80.87
2023-03-12T00:45:40.857Z,80.62
2023-03-12T00:48:07.642Z,80.28
2023-03-12T00:50:34.252Z,80.41
2023-03-12T00:53:01.262Z,80.34
2023-03-12T00:55:27.783Z,80.73
2023-03-12T00:57:54.331Z,80.89
2023-03-12T01:00:21.509Z,80.14
2023-03-12T01:02:48.101Z,80.90
2023-03-12T01:05:15.231Z,80.82
2023-03-12T01:07:41.939Z,81.05
2023-03-12T01:10:09.838Z,80.27
2023-03-12T01:12:37.125Z,81.47
2023-03-12T01:15:05.603Z,80.17
2023-03-12T01:17:32.118Z,80.62
2023-03-12T01:20:00.297Z,80.58
2023-03-12T01:22:28.472Z,81.32
2023-03-12T01:24:56.118Z,81.70
2023-03-12T01:27:23.785Z,80.34
2023-03-12T01:29:51.167Z,80.87
2023-03-12T01:32:19.394Z,80.61
2023-03-12T01:34:47.137Z,80.85
2023-03-12T01:37:15.308Z,80.96
2023-03-12T01:39:43.025Z,80.51
2023-03-12T01:42:11.041Z,81.88
2023-03-12T01:44:58.857Z,80.92
2023-03-12T01:47:29.104Z,81.19
2023-03-12T01:49:56.120Z,82.17
2023-03-12T01:52:30.877Z,81.78
2023-03-12T01:55:06.107Z,81.81
2023-03-12T02:00:13.926Z,82.09
2023-03-12T02:02:41.673Z,82.46
2023-03-12T02:05:17.312Z,81.10
2023-03-12T02:07:43.831Z,81.71
2023-03-12T02:10:11.764Z,81.92
2023-03-12T02:12:38.370Z,82.02
2023-03-12T02:15:05.631Z,82.74
2023-03-12T02:17:32.549Z,81.49
2023-03-12T02:22:54.460Z,81.73
2023-03-12T02:28:06.850Z,82.83
2023-03-12T02:30:34.167Z,82.34
2023-03-12T02:33:05.524Z,82.28
2023-03-12T02:35:32.147Z,81.29
2023-03-12T02:37:58.906Z,82.47
2023-03-12T02:40:33.983Z,82.14
2023-03-12T02:43:01.577Z,82.19
2023-03-12T02:45:29.904Z,82.43
2023-03-12T02:47:56.430Z,82.50
2023-03-12T02:50:23.156Z,82.07
2023-03-12T02:52:49.679Z,81.81
2023-03-12T02:55:16.271Z,83.13
2023-03-12T02:57:43.822Z,83.25
2023-03-12T03:00:12.921Z,82.83
2023-03-12T03:02:40.405Z,81.90
2023-03-12T03:05:07.910Z,82.69
2023-03-12T03:07:34.485Z,81.77
2023-03-12T03:10:04.211Z,82.13
2023-03-12T03:12:32.658Z,82.26
2023-03-12T03:14:59.266Z,81.27
2023-03-12T03:17:26.736Z,82.41
2023-03-12T03:19:53.360Z,81.64
2023-03-12T03:22:21.597Z,81.50
2023-03-12T03:24:48.197Z,82.68
2023-03-12T03:27:15.569Z,81.81
2023-03-12T03:29:42.174Z,82.08
2023-03-12T03:32:08.745Z,81.61
2023-03-12T03:34:35.370Z,81.41
2023-03-12T03:37:01.928Z,81.78
2023-03-12T03:39:29.682Z,81.51
2023-03-12T03:41:56.392Z,81.95
2023-03-12T03:44:24.139Z,81.31
2023-03-12T03:46:50.691Z,81.49
2023-03-12T03:49:17.335Z,81.92
2023-03-12T03:51:43.924Z,81.79
2023-03-12T03:54:11.233Z,82.29
2023-03-12T03:56:38.268Z,81.93
2023-03-12T03:59:04.850Z,81.95
2023-03-12T04:01:31.517Z,81.02
2023-03-12T04:03:59.085Z,81.56
2023-03-12T04:06:26.343Z,81.36
2023-03-12T04:08:52.898Z,81.15
2023-03-12T04:11:21.697Z,81.88
2023-03-12T04:13:49.492Z,81.50
2023-03-12T04:16:17.480Z,81.71
2023-03-12T04:18:44.384Z,81.39
2023-03-12T04:21:12.565Z,81.47
2023-03-12T04:23:39.354Z,81.90
2023-03-12T04:26:07.378Z,82.38
2023-03-12T04:28:34.743Z,81.24
2023-03-12T04:31:04.915Z,82.00
2023-03-12T04:33:34.710Z,81.52
2023-03-12T04:36:01.341Z,81.23
2023-03-12T04:38:28.711Z,82.07
2023-03-12T04:41:07.391Z,81.63
2023-03-12T04:43:34.769Z,81.76
2023-03-12T04:46:01.332Z,82.43
2023-03-12T04:48:28.862Z,81.81
2023-03-12T04:50:55.540Z,81.80
2023-03-12T04:53:22.881Z,81.09
2023-03-12T04:55:50.359Z,82.32
2023-03-12T04:58:18.164Z,82.72
2023-03-12T05:00:45.089Z,82.40
2023-03-12T05:03:12.608Z,81.33
2023-03-12T05:05:39.208Z,81.23
2023-03-12T05:08:05.954Z,81.94
2023-03-12T05:10:32.836Z,81.79
2023-03-12T05:12:59.502Z,81.13
2023-03-12T05:15:26.485Z,82.37
2023-03-12T05:17:54.838Z,81.24
2023-03-12T05:20:21.980Z,82.29
2023-03-12T05:22:48.881Z,82.40
2023-03-12T05:25:15.479Z,81.64
2023-03-12T05:27:42.050Z,81.32
2023-03-12T05:30:09.793Z,81.83
2023-03-12T05:32:36.469Z,81.64
2023-03-12T05:35:03.285Z,81.99
2023-03-12T05:37:29.878Z,81.88
2023-03-12T05:39:56.603Z,81.34
2023-03-12T05:42:25.319Z,82.42
2023-03-12T05:44:52.407Z,81.75
2023-03-12T05:47:19.588Z,82.37
2023-03-12T05:49:46.185Z,82.61
2023-03-12T05:52:12.719Z,81.02
2023-03-12T05:54:39.479Z,81.24
2023-03-12T05:57:06.213Z,81.92
2023-03-12T05:59:32.885Z,81.77
2023-03-12T06:01:59.571Z,81.23
2023-03-12T06:04:26.214Z,81.41
2023-03-12T06:06:52.806Z,81.63
2023-03-12T06:09:19.469Z,82.57
2023-03-12T06:11:46.026Z,82.80
2023-03-12T06:14:13.133Z,81.31
2023-03-12T06:16:39.819Z,82.62
2023-03-12T06:19:07.703Z,81.11
2023-03-12T06:21:35.612Z,80.92
2023-03-12T06:24:03.176Z,82.58
2023-03-12T06:26:29.751Z,82.11
2023-03-12T06:28:56.589Z,82.22
2023-03-12T06:31:24.211Z,81.23
2023-03-12T06:33:51.161Z,81.74
2023-03-12T06:36:18.117Z,82.26
2023-03-12T06:38:44.687Z,81.44
2023-03-12T06:41:15.632Z,81.54
2023-03-12T06:43:43.315Z,81.45
2023-03-12T06:46:14.884Z,81.95
2023-03-12T06:48:41.691Z,80.72
2023-03-12T06:51:09.671Z,82.30
2023-03-12T06:53:36.435Z,81.51
2023-03-12T06:56:03.641Z,81.48
2023-03-12T06:58:30.694Z,81.59
2023-03-12T07:00:57.278Z,82.13
2023-03-12T07:03:23.926Z,82.08
2023-03-12T07:05:51.302Z,80.45
2023-03-12T07:08:18.971Z,80.99
2023-03-12T07:10:46.179Z,82.12
2023-03-12T07:13:13.019Z,80.86
2023-03-12T07:15:39.784Z,81.62
2023-03-12T07:18:08.333Z,80.94
2023-03-12T07:20:40.795Z,81.53
2023-03-12T07:23:07.594Z,80.67
2023-03-12T07:25:37.354Z,80.83
2023-03-12T07:28:04.399Z,80.09
2023-03-12T07:30:33.611Z,81.44
2023-03-12T07:33:05.033Z,80.22
2023-03-12T07:35:32.933Z,79.84
2023-03-12T07:38:01.027Z,80.51
2023-03-12T07:40:29.002Z,80.37
2023-03-12T07:42:55.614Z,80.48
2023-03-12T07:45:22.336Z,80.00
2023-03-12T07:47:49.739Z,80.24
2023-03-12T07:50:18.138Z,80.99
2023-03-12T07:52:45.231Z,81.10
2023-03-12T07:55:12.211Z,81.05
2023-03-12T07:57:38.979Z,79.76
2023-03-12T08:00:07.904Z,79.67
2023-03-12T08:02:35.870Z,79.14
2023-03-12T08:05:02.837Z,78.74
2023-03-12T08:07:32.500Z,77.87
2023-03-12T08:10:00.526Z,77.50
2023-03-12T08:12:28.020Z,76.49
2023-03-12T08:14:54.797Z,75.90
2023-03-12T08:17:21.472Z,73.75
2023-03-12T08:19:48.261Z,74.15
2023-03-12T08:22:14.825Z,74.68
2023-03-12T08:24:41.421Z,72.65
2023-03-12T08:27:07.953Z,72.52
2023-03-12T08:29:34.772Z,71.89
2023-03-12T08:32:05.232Z,71.37
2023-03-12T08:34:33.971Z,70.22
2023-03-12T08:37:01.344Z,69.59
2023-03-12T08:39:27.863Z,68.24
2023-03-12T08:41:55.439Z,67.99
2023-03-12T08:44:23.323Z,66.98
2023-03-12T08:46:50.275Z,66.65
2023-03-12T08:49:17.162Z,65.97
2023-03-12T08:51:43.672Z,64.89
2023-03-12T08:54:10.327Z,64.48
2023-03-12T08:56:41.914Z,63.96
2023-03-12T08:59:09.919Z,63.51
2023-03-12T09:01:36.616Z,62.29
2023-03-12T09:04:04.060Z,61.83
2023-03-12T09:06:30.758Z,60.11
2023-03-12T09:08:57.765Z,60.45
2023-03-12T09:11:24.314Z,59.56
2023-03-12T09:14:15.280Z,59.33
2023-03-12T09:16:37.617Z,57.85
2023-03-12T09:19:04.507Z,57.93
2023-03-12T09:21:31.102Z,57.86
2023-03-12T09:23:57.765Z,57.25
2023-03-12T09:26:24.315Z,56.79
2023-03-12T09:28:50.976Z,55.60
2023-03-12T09:31:17.729Z,55.19
2023-03-12T09:33:44.696Z,54.18
2023-03-12T09:36:11.294Z,54.76
2023-03-12T09:38:38.074Z,54.85
2023-03-12T09:41:06.013Z,54.71
2023-03-12T09:43:38.698Z,54.01
2023-03-12T09:46:13.777Z,53.70
2023-03-12T09:48:40.636Z,54.60
2023-03-12T09:51:17.212Z,54.00
2023-03-12T09:53:51.214Z,52.13
2023-03-12T09:56:20.500Z,51.96
2023-03-12T09:58:48.380Z,51.60
2023-03-12T10:09:54.832Z,50.66
2023-03-12T10:26:25.635Z,51.77
2023-03-12T10:28:59.074Z,51.68
2023-03-12T10:31:30.902Z,51.21
2023-03-12T10:34:01.305Z,51.53
2023-03-12T10:39:06.896Z,52.24
2023-03-12T10:41:34.900Z,52.25
2023-03-12T10:44:07.747Z,52.16
2023-03-12T10:46:51.611Z,51.73
2023-03-12T10:52:21.005Z,53.73
2023-03-12T10:54:50.153Z,53.66
2023-03-12T10:57:17.195Z,54.14
2023-03-12T10:59:47.730Z,54.06
2023-03-12T11:05:21.714Z,54.98
2023-03-12T11:07:48.606Z,55.31
2023-03-12T11:10:20.362Z,55.79
2023-03-12T11:13:05.447Z,55.97
2023-03-12T11:15:41.783Z,55.60
2023-03-12T11:21:17.347Z,56.31
2023-03-12T11:24:04.368Z,56.62
2023-03-12T11:34:37.439Z,57.67
2023-03-12T11:40:10.018Z,58.06
2023-03-12T11:42:52.115Z,57.36
2023-03-12T11:45:51.046Z,58.20
2023-03-12T11:51:33.450Z,57.78
2023-03-12T11:56:56.149Z,58.13
2023-03-12T11:59:47.764Z,58.01
2023-03-12T12:05:11.767Z,57.87
2023-03-12T12:13:18.494Z,57.73
2023-03-12T12:18:57.285Z,58.01
2023-03-12T12:22:03.751Z,58.67
2023-03-12T12:25:10.305Z,58.49
2023-03-12T12:27:44.500Z,59.13
2023-03-12T12:36:29.771Z,57.74
2023-03-12T12:39:05.106Z,58.48
2023-03-12T12:41:38.102Z,58.17
2023-03-12T12:44:12.860Z,58.45
2023-03-12T12:46:45.236Z,58.72
2023-03-12T12:49:19.456Z,58.27
2023-03-12T12:51:50.794Z,58.33
2023-03-12T12:57:00.670Z,58.08
2023-03-12T12:59:39.089Z,58.65
2023-03-12T13:02:17.152Z,58.62
2023-03-12T13:04:44.512Z,58.39
2023-03-12T13:09:52.384Z,58.96
2023-03-12T13:18:17.232Z,58.98
2023-03-12T13:21:08.770Z,59.51
2023-03-12T13:32:10.835Z,59.63
2023-03-12T13:34:45.638Z,59.56
2023-03-12T13:37:20.443Z,60.10
2023-03-12T13:39:47.026Z,60.22
2023-03-12T13:45:22.270Z,60.28
2023-03-12T13:47:52.033Z,60.97
2023-03-12T13:50:18.596Z,60.74
2023-03-12T13:53:08.072Z,61.30
2023-03-12T13:55:37.636Z,61.38
2023-03-12T14:03:33.730Z,60.66
2023-03-12T14:06:10.697Z,61.09
2023-03-12T14:11:31.356Z,61.29
2023-03-12T14:16:42.033Z,60.88
2023-03-12T14:19:13.723Z,61.33
2023-03-12T14:21:44.521Z,61.26
2023-03-12T14:24:33.714Z,61.19
2023-03-12T14:27:02.505Z,61.66
2023-03-12T14:32:19.409Z,61.28
2023-03-12T14:34:53.878Z,61.44
2023-03-12T14:37:28.137Z,61.58
2023-03-12T14:40:00.567Z,61.25
2023-03-12T14:42:34.082Z,61.39
2023-03-12T14:45:11.489Z,61.70
2023-03-12T14:50:21.661Z,61.69
2023-03-12T14:52:48.347Z,61.57
2023-03-12T14:55:18.817Z,61.98
2023-03-12T14:57:45.937Z,62.26
2023-03-12T15:00:27.850Z,61.86
2023-03-12T15:02:57.754Z,62.67
2023-03-12T15:05:24.555Z,61.72
2023-03-12T15:07:56.050Z,61.76
2023-03-12T15:10:26.032Z,62.73
2023-03-12T15:12:56.207Z,62.44
2023-03-12T15:18:08.553Z,61.66
2023-03-12T15:20:35.944Z,61.83
2023-03-12T15:23:04.554Z,62.44
2023-03-12T15:25:33.898Z,62.59
2023-03-12T15:30:44.181Z,62.47
2023-03-12T15:33:27.641Z,63.15
2023-03-12T15:38:44.320Z,63.66
2023-03-12T15:41:20.742Z,63.13
2023-03-12T15:43:50.998Z,63.78
2023-03-12T15:46:18.015Z,62.70
2023-03-12T15:48:51.111Z,62.82
2023-03-12T15:51:36.147Z,62.85
2023-03-12T15:57:12.212Z,63.28
2023-03-12T15:59:38.776Z,63.49
2023-03-12T16:02:11.263Z,62.83
2023-03-12T16:04:37.935Z,63.94
2023-03-12T16:07:12.017Z,63.07
2023-03-12T16:09:38.593Z,63.75
2023-03-12T16:12:05.368Z,63.40
2023-03-12T16:14:36.211Z,63.66
2023-03-12T16:17:02.932Z,63.14
2023-03-12T16:19:33.666Z,63.45
2023-03-12T16:22:00.304Z,63.77
2023-03-12T16:24:26.822Z,64.30
2023-03-12T16:26:56.748Z,63.09
2023-03-12T16:29:32.148Z,64.14
2023-03-12T16:31:59.454Z,64.26
2023-03-12T16:34:28.105Z,63.76
2023-03-12T16:36:54.710Z,63.83
2023-03-12T16:39:21.281Z,63.69
2023-03-12T16:41:48.034Z,63.91
2023-03-12T16:44:19.946Z,64.81
2023-03-12T16:46:46.622Z,63.66
2023-03-12T16:49:16.458Z,63.71
2023-03-12T16:51:43.192Z,64.94
2023-03-12T16:54:12.005Z,64.99
2023-03-12T16:56:43.501Z,65.13
2023-03-12T16:59:23.217Z,65.28
2023-03-12T17:01:50.032Z,65.30
2023-03-12T17:04:16.639Z,64.73
2023-03-12T17:06:43.176Z,65.95
2023-03-12T17:09:09.723Z,65.12
2023-03-12T17:11:37.986Z,65.76
2023-03-12T17:14:19.057Z,65.78
2023-03-12T17:16:45.728Z,67.17
2023-03-12T17:19:12.325Z,66.65
2023-03-12T17:21:39.622Z,66.90
2023-03-12T17:24:06.599Z,66.53
2023-03-12T17:26:33.891Z,66.89
2023-03-12T17:29:00.431Z,67.54
2023-03-12T17:31:27.137Z,66.78
2023-03-12T17:33:53.668Z,67.89
2023-03-12T17:36:20.205Z,68.11
2023-03-12T17:38:48.947Z,66.86
2023-03-12T17:41:26.002Z,67.88
2023-03-12T17:43:54.772Z,68.20
2023-03-12T17:46:21.887Z,68.36
2023-03-12T17:48:48.483Z,67.74
2023-03-12T17:51:15.005Z,67.19
2023-03-12T17:53:42.054Z,68.49
2023-03-12T17:56:09.212Z,67.79
2023-03-12T17:58:35.921Z,68.32
2023-03-12T18:01:02.419Z,68.59
2023-03-12T18:03:29.075Z,69.13
2023-03-12T18:05:55.863Z,69.04
2023-03-12T18:08:22.423Z,70.31
2023-03-12T18:10:49.098Z,70.44
2023-03-12T18:13:15.837Z,70.08
2023-03-12T18:15:42.459Z,71.53
2023-03-12T18:18:09.093Z,71.40
2023-03-12T18:20:39.498Z,72.00
2023-03-12T18:23:06.890Z,72.32
2023-03-12T18:25:33.492Z,72.21
2023-03-12T18:28:00.055Z,71.75
2023-03-12T18:30:28.241Z,71.92
2023-03-12T18:32:54.960Z,72.84
2023-03-12T18:35:22.707Z,73.01
2023-03-12T18:37:51.901Z,72.34
2023-03-12T18:40:18.440Z,72.35
2023-03-12T18:42:44.999Z,72.75
2023-03-12T18:45:12.429Z,73.73
2023-03-12T18:47:39.639Z,73.08
2023-03-12T18:50:08.246Z,73.60
2023-03-12T18:52:35.571Z,74.76
2023-03-12T18:55:02.156Z,74.40
2023-03-12T18:57:28.705Z,74.49
2023-03-12T18:59:56.022Z,74.28
2023-03-12T19:02:23.793Z,75.32
2023-03-12T19:04:51.381Z,75.01
2023-03-12T19:07:19.701Z,74.72
2023-03-12T19:09:46.925Z,75.45
2023-03-12T19:12:13.534Z,76.16
2023-03-12T19:14:40.159Z,75.40
2023-03-12T19:17:06.733Z,76.05
2023-03-12T19:19:33.250Z,77.09
2023-03-12T19:21:59.886Z,76.58
2023-03-12T19:24:26.559Z,76.86
2023-03-12T19:26:53.121Z,76.91
2023-03-12T19:29:19.671Z,77.30
2023-03-12T19:31:46.365Z,77.61
2023-03-12T19:34:12.979Z,76.97
2023-03-12T19:36:39.587Z,76.76
2023-03-12T19:39:18.795Z,77.38
2023-03-12T19:41:47.386Z,78.42
2023-03-12T19:44:13.912Z,78.76
2023-03-12T19:46:43.071Z,79.05
2023-03-12T19:49:10.001Z,78.55
2023-03-12T19:51:36.669Z,78.73
2023-03-12T19:54:03.320Z,79.53
2023-03-12T19:56:29.862Z,78.77
2023-03-12T19:58:56.415Z,78.99
2023-03-12T20:01:23.083Z,79.59
2023-03-12T20:03:49.640Z,78.80
2023-03-12T20:06:16.381Z,78.96
2023-03-12T20:08:44.563Z,80.00
2023-03-12T20:11:11.374Z,79.57
2023-03-12T20:13:39.131Z,79.71
2023-03-12T20:16:07.664Z,79.76
2023-03-12T20:18:34.412Z,80.13
2023-03-12T20:21:01.026Z,79.74
2023-03-12T20:23:27.539Z,80.23
2023-03-12T20:25:54.059Z,80.02
2023-03-12T20:28:20.704Z,80.42
2023-03-12T20:30:48.515Z,79.74
2023-03-12T20:33:15.290Z,80.42
2023-03-12T20:35:41.871Z,80.53
2023-03-12T20:38:08.678Z,80.04
2023-03-12T20:40:35.367Z,79.69
2023-03-12T20:43:04.910Z,80.23
2023-03-12T20:45:32.781Z,79.91
2023-03-12T20:48:00.148Z,79.94
2023-03-12T20:50:27.669Z,80.82
2023-03-12T20:52:54.313Z,80.08
2023-03-12T20:55:20.853Z,80.41
2023-03-12T20:57:47.378Z,80.94
2023-03-12T21:00:14.322Z,80.33
2023-03-12T21:02:40.917Z,80.26
2023-03-12T21:05:10.090Z,81.09
2023-03-12T21:07:36.785Z,80.86
2023-03-12T21:10:03.915Z,80.50
2023-03-12T21:12:30.456Z,80.30
2023-03-12T21:15:06.054Z,80.51
2023-03-12T21:17:34.445Z,81.35
2023-03-12T21:20:02.302Z,81.23
2023-03-12T21:22:30.464Z,82.33
2023-03-12T21:24:57.340Z,81.95
2023-03-12T21:27:24.330Z,81.32
2023-03-12T21:29:50.914Z,81.65
2023-03-12T21:32:17.500Z,82.06
2023-03-12T21:34:44.121Z,81.44
2023-03-12T21:37:10.667Z,82.51
2023-03-12T21:39:37.184Z,82.46
2023-03-12T21:42:03.902Z,82.10
2023-03-12T21:44:30.426Z,82.50
2023-03-12T21:46:57.041Z,82.55
2023-03-12T21:49:23.669Z,81.77
2023-03-12T21:51:50.225Z,81.52
2023-03-12T21:54:16.757Z,82.10
2023-03-12T21:56:43.430Z,81.67
2023-03-12T21:59:10.721Z,82.13
2023-03-12T22:01:37.473Z,81.87
2023-03-12T22:04:05.666Z,81.43
2023-03-12T22:06:32.260Z,82.07
2023-03-12T22:08:58.798Z,82.21
2023-03-12T22:11:25.318Z,82.50
2023-03-12T22:13:51.884Z,82.27
2023-03-12T22:16:18.500Z,82.18
2023-03-12T22:18:46.617Z,81.96
2023-03-12T22:21:19.257Z,82.08
2023-03-12T22:23:48.209Z,82.02
2023-03-12T22:26:15.031Z,82.61
2023-03-12T22:28:41.666Z,82.51
2023-03-12T22:31:09.397Z,81.89
2023-03-12T22:33:36.871Z,82.28
2023-03-12T22:36:08.001Z,82.03
2023-03-12T22:38:36.776Z,81.74
2023-03-12T22:44:00.944Z,82.50
2023-03-12T22:46:28.096Z,82.44
2023-03-12T22:48:57.043Z,82.06
2023-03-12T22:51:24.807Z,82.42
2023-03-12T22:53:51.462Z,81.85
2023-03-12T22:56:18.222Z,82.02
2023-03-12T22:58:44.986Z,82.32
2023-03-12T23:01:16.044Z,82.31
2023-03-12T23:03:43.926Z,83.07
2023-03-12T23:06:12.623Z,82.09
2023-03-12T23:08:39.650Z,83.00
2023-03-12T23:11:07.760Z,82.47
2023-03-12T23:13:36.506Z,81.81
2023-03-12T23:16:07.137Z,82.83
2023-03-12T23:18:34.832Z,82.48
2023-03-12T23:21:04.668Z,83.07
2023-03-12T23:23:32.006Z,81.83
2023-03-12T23:26:00.174Z,82.46
2023-03-12T23:28:28.650Z,81.51
2023-03-12T23:30:58.173Z,83.06
2023-03-12T23:33:25.726Z,82.52
2023-03-12T23:36:02.488Z,83.56
2023-03-12T23:38:30.254Z,83.41
2023-03-12T23:41:11.346Z,82.56
2023-03-12T23:43:38.127Z,83.07
2023-03-12T23:46:06.387Z,82.42
2023-03-12T23:48:34.038Z,82.41
2023-03-12T23:51:07.999Z,83.42
2023-03-12T23:53:35.483Z,82.79
2023-03-12T23:56:04.670Z,82.42
2023-03-12T23:58:31.551Z,82.57
